createdAt,value
2019-01-19T00:01:55.368Z,3.65
2019-01-19T00:04:33.280Z,3.50
2019-01-19T00:07:27.817Z,3.60
2019-01-19T00:10:35.788Z,3.75
2019-01-19T00:13:17.318Z,3.55
2019-01-19T00:16:16.348Z,4.15
2019-01-19T00:19:02.096Z,3.90
2019-01-19T00:21:34.893Z,3.60
2019-01-19T00:24:12.229Z,3.40
2019-01-19T00:27:01.674Z,3.20
2019-01-19T00:29:56.400Z,3.42
2019-01-19T00:33:05.692Z,4.35
2019-01-19T00:35:52.565Z,3.35
2019-01-19T00:38:27.818Z,2.77
2019-01-19T00:41:08.681Z,2.92
2019-01-19T00:43:43.549Z,4.05
2019-01-19T00:46:32.311Z,3.22
2019-01-19T00:49:15.045Z,3.52
2019-01-19T00:52:11.734Z,2.50
2019-01-19T00:55:03.812Z,3.83
2019-01-19T00:57:49.126Z,2.77
2019-01-19T01:00:32.652Z,2.55
2019-01-19T01:03:06.473Z,2.30
2019-01-19T01:05:39.265Z,2.77
2019-01-19T01:08:37.093Z,2.55
2019-01-19T01:11:14.769Z,2.98
2019-01-19T01:14:06.978Z,2.75
2019-01-19T01:16:46.493Z,2.15
2019-01-19T01:19:43.009Z,2.98
2019-01-19T01:22:35.678Z,2.60
2019-01-19T01:25:14.337Z,3.27
2019-01-19T01:27:54.793Z,2.70
2019-01-19T01:30:49.050Z,2.10
2019-01-19T01:33:33.868Z,2.35
2019-01-19T01:36:26.511Z,2.83
2019-01-19T01:39:36.947Z,2.20
2019-01-19T01:42:30.477Z,2.72
2019-01-19T01:45:19.741Z,2.58
2019-01-19T01:48:28.302Z,2.27
2019-01-19T01:51:28.682Z,2.37
2019-01-19T01:54:25.520Z,2.70
2019-01-19T01:57:00.017Z,2.22
2019-01-19T01:59:46.057Z,2.90
2019-01-19T02:02:29.585Z,2.77
2019-01-19T02:05:32.257Z,2.90
2019-01-19T02:08:28.677Z,2.42
2019-01-19T02:11:07.216Z,2.75
2019-01-19T02:13:52.630Z,2.77
2019-01-19T02:16:38.529Z,2.65
2019-01-19T02:19:44.753Z,3.25
2019-01-19T02:22:24.322Z,2.55
2019-01-19T02:25:20.001Z,2.20
2019-01-19T02:28:33.830Z,2.25
2019-01-19T02:31:27.418Z,2.20
2019-01-19T02:34:11.061Z,2.47
2019-01-19T02:37:20.184Z,2.02
2019-01-19T02:40:15.002Z,2.87
2019-01-19T02:43:07.978Z,2.45
2019-01-19T02:46:11.468Z,3.60
2019-01-19T02:49:04.202Z,2.77
2019-01-19T02:52:11.927Z,2.40
2019-01-19T02:55:00.921Z,2.90
2019-01-19T02:58:08.658Z,2.52
2019-01-19T03:01:14.653Z,2.62
2019-01-19T03:04:09.921Z,2.75
2019-01-19T03:06:55.232Z,3.65
2019-01-19T03:09:51.906Z,2.95
2019-01-19T03:13:29.689Z,1.77
2019-01-19T03:16:28.287Z,2.52
2019-01-19T03:19:15.425Z,2.65
2019-01-19T03:21:57.098Z,3.08
2019-01-19T03:25:22.449Z,3.00
2019-01-19T03:28:18.404Z,3.15
2019-01-19T03:31:19.912Z,2.50
2019-01-19T03:34:04.893Z,2.55
2019-01-19T03:37:22.141Z,2.85
2019-01-19T03:40:15.374Z,2.33
2019-01-19T03:43:14.955Z,2.25
2019-01-19T03:46:11.878Z,2.52
2019-01-19T03:49:06.525Z,2.55
2019-01-19T03:52:01.098Z,2.72
2019-01-19T03:54:40.368Z,2.50
2019-01-19T03:57:15.297Z,2.90
2019-01-19T03:59:56.243Z,2.67
2019-01-19T04:03:02.045Z,2.50
2019-01-19T04:06:12.917Z,2.90
2019-01-19T04:09:18.809Z,2.85
2019-01-19T04:12:05.549Z,2.67
2019-01-19T04:15:01.500Z,2.92
2019-01-19T04:17:59.747Z,2.92
2019-01-19T04:20:59.963Z,2.47
2019-01-19T04:23:30.961Z,3.27
2019-01-19T04:26:02.189Z,3.17
2019-01-19T04:28:44.413Z,2.72
2019-01-19T04:31:14.381Z,2.65
2019-01-19T04:33:50.188Z,3.17
2019-01-19T04:36:21.954Z,2.40
2019-01-19T04:38:56.401Z,4.20
2019-01-19T04:41:28.447Z,3.42
2019-01-19T04:43:58.535Z,3.12
2019-01-19T04:46:31.845Z,2.55
2019-01-19T04:49:04.883Z,2.90
2019-01-19T04:51:34.983Z,3.42
2019-01-19T04:54:05.167Z,3.55
2019-01-19T04:56:35.937Z,2.55
2019-01-19T04:59:06.123Z,2.87
2019-01-19T05:01:37.142Z,2.62
2019-01-19T05:04:07.231Z,3.05
2019-01-19T05:06:44.201Z,2.35
2019-01-19T05:09:15.290Z,1.85
2019-01-19T05:11:52.926Z,2.27
2019-01-19T05:14:22.597Z,2.42
2019-01-19T05:16:59.684Z,2.40
2019-01-19T05:19:55.729Z,2.87
2019-01-19T05:22:25.717Z,2.80
2019-01-19T05:24:55.551Z,3.27
2019-01-19T05:27:30.183Z,2.60
2019-01-19T05:30:01.295Z,1.98
2019-01-19T05:32:32.499Z,2.45
2019-01-19T05:35:03.687Z,2.30
2019-01-19T05:37:37.569Z,2.72
2019-01-19T05:40:12.277Z,3.10
2019-01-19T05:42:44.380Z,2.55
2019-01-19T05:45:15.306Z,2.42
2019-01-19T05:47:44.993Z,2.80
2019-01-19T05:50:18.553Z,3.30
2019-01-19T05:52:49.350Z,2.77
2019-01-19T05:55:25.207Z,3.05
2019-01-19T05:57:57.059Z,3.08
2019-01-19T06:00:41.013Z,2.05
2019-01-19T06:03:12.071Z,3.00
2019-01-19T06:05:42.640Z,2.62
2019-01-19T06:08:17.833Z,3.00
2019-01-19T06:10:49.886Z,2.15
2019-01-19T06:13:20.916Z,2.55
2019-01-19T06:15:51.953Z,2.15
2019-01-19T06:18:22.751Z,2.62
2019-01-19T06:20:52.769Z,2.60
2019-01-19T06:23:23.863Z,2.30
2019-01-19T06:25:59.911Z,2.58
2019-01-19T06:28:30.035Z,1.98
2019-01-19T06:31:02.089Z,2.35
2019-01-19T06:33:32.181Z,1.65
2019-01-19T06:36:02.038Z,1.98
2019-01-19T06:38:33.746Z,2.40
2019-01-19T06:41:03.470Z,2.30
2019-01-19T06:43:44.119Z,2.35
2019-01-19T06:46:13.842Z,3.60
2019-01-19T06:48:43.795Z,2.37
2019-01-19T06:51:13.889Z,2.25
2019-01-19T06:53:44.314Z,3.12
2019-01-19T06:56:22.989Z,1.60
2019-01-19T06:58:52.975Z,1.50
2019-01-19T07:01:22.797Z,1.77
2019-01-19T07:03:52.753Z,2.42
2019-01-19T07:06:22.921Z,2.50
2019-01-19T07:08:53.017Z,1.72
2019-01-19T07:11:23.133Z,2.20
2019-01-19T07:13:54.945Z,1.62
2019-01-19T07:16:24.666Z,2.20
2019-01-19T07:18:54.778Z,2.45
2019-01-19T07:21:24.613Z,2.55
2019-01-19T07:23:54.573Z,2.92
2019-01-19T07:26:26.361Z,2.10
2019-01-19T07:28:57.265Z,1.82
2019-01-19T07:31:28.234Z,2.72
2019-01-19T07:33:58.281Z,1.87
2019-01-19T07:36:28.994Z,2.45
2019-01-19T07:39:00.642Z,2.67
2019-01-19T07:41:30.597Z,3.22
2019-01-19T07:44:06.733Z,3.10
2019-01-19T07:46:40.473Z,2.62
2019-01-19T07:49:16.293Z,2.45
2019-01-19T07:51:47.290Z,1.98
2019-01-19T07:54:16.970Z,2.35
2019-01-19T07:56:46.821Z,2.12
2019-01-19T07:59:22.843Z,2.85
2019-01-19T08:01:52.930Z,2.50
2019-01-19T08:04:26.271Z,1.75
2019-01-19T08:06:57.290Z,3.05
2019-01-19T08:09:28.073Z,2.05
2019-01-19T08:11:58.035Z,1.90
2019-01-19T08:14:30.111Z,2.62
2019-01-19T08:17:00.905Z,2.90
2019-01-19T08:19:30.869Z,3.12
2019-01-19T08:22:00.969Z,3.05
2019-01-19T08:24:31.075Z,2.42
2019-01-19T08:27:02.141Z,2.65
2019-01-19T08:29:32.914Z,3.15
2019-01-19T08:32:07.961Z,2.77
2019-01-19T08:34:38.118Z,3.05
2019-01-19T08:37:07.941Z,2.35
2019-01-19T08:39:39.953Z,3.10
2019-01-19T08:42:10.941Z,3.70
2019-01-19T08:44:41.142Z,2.80
2019-01-19T08:47:17.777Z,2.05
2019-01-19T08:49:47.751Z,2.40
2019-01-19T08:52:17.847Z,2.42
2019-01-19T08:54:47.949Z,2.42
2019-01-19T08:57:29.034Z,1.98
2019-01-19T09:00:01.891Z,2.22
2019-01-19T09:02:39.640Z,1.67
2019-01-19T09:05:13.012Z,2.20
2019-01-19T09:07:44.534Z,3.60
2019-01-19T09:10:18.093Z,3.52
2019-01-19T09:12:54.934Z,2.47
2019-01-19T09:15:26.311Z,2.25
2019-01-19T09:18:02.493Z,2.15
2019-01-19T09:20:32.579Z,2.58
2019-01-19T09:23:12.748Z,1.87
2019-01-19T09:25:43.865Z,2.22
2019-01-19T09:28:14.029Z,2.35
2019-01-19T09:30:44.293Z,3.10
2019-01-19T09:33:13.978Z,2.35
2019-01-19T09:35:43.661Z,2.45
2019-01-19T09:38:13.614Z,2.27
2019-01-19T09:40:44.761Z,2.47
2019-01-19T09:43:18.946Z,2.00
2019-01-19T09:45:49.074Z,1.98
2019-01-19T09:48:18.934Z,2.27
2019-01-19T09:50:48.622Z,1.80
2019-01-19T09:53:18.342Z,2.20
2019-01-19T09:55:48.022Z,2.10
2019-01-19T09:58:17.977Z,2.67
2019-01-19T10:00:56.381Z,2.20
2019-01-19T10:03:28.349Z,1.95
2019-01-19T10:05:59.323Z,2.52
2019-01-19T10:08:31.057Z,1.57
2019-01-19T10:11:02.726Z,2.35
2019-01-19T10:13:33.469Z,2.15
2019-01-19T10:16:03.484Z,2.33
2019-01-19T10:18:33.738Z,1.85
2019-01-19T10:21:04.099Z,2.02
2019-01-19T10:23:34.226Z,2.42
2019-01-19T10:26:05.129Z,2.98
2019-01-19T10:28:35.097Z,2.95
2019-01-19T10:31:04.925Z,1.80
2019-01-19T10:33:34.789Z,2.40
2019-01-19T10:36:04.695Z,1.92
2019-01-19T10:38:34.482Z,2.20
2019-01-19T10:41:05.110Z,2.37
2019-01-19T10:43:35.139Z,2.40
2019-01-19T10:46:05.283Z,2.60
2019-01-19T10:48:37.094Z,2.52
2019-01-19T10:51:06.873Z,1.90
2019-01-19T10:53:36.782Z,2.10
2019-01-19T10:56:06.807Z,2.30
2019-01-19T10:58:36.626Z,2.90
2019-01-19T11:01:06.382Z,2.80
2019-01-19T11:03:36.438Z,2.33
2019-01-19T11:06:07.811Z,3.07
2019-01-19T11:08:37.618Z,2.70
2019-01-19T11:11:07.352Z,2.87
2019-01-19T11:13:38.039Z,2.37
2019-01-19T11:16:07.814Z,2.47
2019-01-19T11:18:37.545Z,2.93
2019-01-19T11:21:07.509Z,2.73
2019-01-19T11:23:39.877Z,2.47
2019-01-19T11:26:08.666Z,2.90
2019-01-19T11:28:39.563Z,2.57
2019-01-19T11:31:09.742Z,2.70
2019-01-19T11:33:40.895Z,2.70
2019-01-19T11:36:10.741Z,2.30
2019-01-19T11:38:40.398Z,2.27
2019-01-19T11:41:10.118Z,2.63
2019-01-19T11:43:43.039Z,3.00
2019-01-19T11:46:15.866Z,2.50
2019-01-19T11:48:45.830Z,2.33
2019-01-19T11:51:19.622Z,2.37
2019-01-19T11:53:49.310Z,2.53
2019-01-19T11:56:20.158Z,2.20
2019-01-19T11:58:49.930Z,2.40
2019-01-19T12:01:19.895Z,2.30
2019-01-19T12:03:59.766Z,2.87
2019-01-19T12:06:33.258Z,2.03
2019-01-19T12:09:05.867Z,2.50
2019-01-19T12:11:35.690Z,2.10
2019-01-19T12:14:06.584Z,2.90
2019-01-19T12:16:37.656Z,1.80
2019-01-19T12:19:07.500Z,2.13
2019-01-19T12:21:42.414Z,3.10
2019-01-19T12:24:12.375Z,2.37
2019-01-19T12:26:43.430Z,2.70
2019-01-19T12:29:14.206Z,1.90
2019-01-19T12:31:55.990Z,2.50
2019-01-19T12:34:27.734Z,2.30
2019-01-19T12:36:58.462Z,2.20
2019-01-19T12:39:28.476Z,2.17
2019-01-19T12:41:58.677Z,2.23
2019-01-19T12:44:29.557Z,2.20
2019-01-19T12:47:01.477Z,1.70
2019-01-19T12:49:31.822Z,2.40
2019-01-19T12:52:01.966Z,1.93
2019-01-19T12:54:31.886Z,2.00
2019-01-19T12:57:02.025Z,1.77
2019-01-19T12:59:32.842Z,1.62
2019-01-19T13:02:02.811Z,1.85
2019-01-19T13:04:34.482Z,2.22
2019-01-19T13:07:06.697Z,2.70
2019-01-19T13:09:36.930Z,1.85
2019-01-19T13:12:09.821Z,2.00
2019-01-19T13:14:42.594Z,2.15
2019-01-19T13:17:45.724Z,2.47
2019-01-19T13:20:37.110Z,2.35
2019-01-19T13:23:16.334Z,2.45
2019-01-19T13:25:59.062Z,2.27
2019-01-19T13:29:02.009Z,2.98
2019-01-19T13:32:06.156Z,1.60
2019-01-19T13:34:55.217Z,1.92
2019-01-19T13:37:58.121Z,2.33
2019-01-19T13:40:50.734Z,2.33
2019-01-19T13:44:00.218Z,2.42
2019-01-19T13:46:45.914Z,2.20
2019-01-19T13:49:43.463Z,2.30
2019-01-19T13:52:19.406Z,1.85
2019-01-19T13:55:13.228Z,2.45
2019-01-19T13:57:51.638Z,2.17
2019-01-19T14:00:42.250Z,2.47
2019-01-19T14:03:38.934Z,2.57
2019-01-19T14:06:27.238Z,2.75
2019-01-19T14:09:22.730Z,2.60
2019-01-19T14:12:17.546Z,3.00
2019-01-19T14:15:18.066Z,2.42
2019-01-19T14:18:09.022Z,2.65
2019-01-19T14:21:02.170Z,2.90
2019-01-19T14:23:37.606Z,2.35
2019-01-19T14:26:16.058Z,2.27
2019-01-19T14:28:55.334Z,2.85
2019-01-19T14:31:49.130Z,2.80
2019-01-19T14:34:52.184Z,2.47
2019-01-19T14:37:45.470Z,3.12
2019-01-19T14:40:33.154Z,2.77
2019-01-19T14:43:25.762Z,1.90
2019-01-19T14:46:07.290Z,2.05
2019-01-19T14:49:17.974Z,2.30
2019-01-19T14:52:34.966Z,2.40
2019-01-19T14:55:22.142Z,2.77
2019-01-19T14:58:11.692Z,2.12
2019-01-19T15:00:47.306Z,2.40
2019-01-19T15:03:54.894Z,2.37
2019-01-19T15:06:35.326Z,3.67
2019-01-19T15:09:13.978Z,3.70
2019-01-19T15:12:08.634Z,3.70
2019-01-19T15:15:01.535Z,2.22
2019-01-19T15:18:07.678Z,2.98
2019-01-19T15:20:43.178Z,2.58
2019-01-19T15:23:19.574Z,2.50
2019-01-19T15:26:04.214Z,2.27
2019-01-19T15:28:46.070Z,2.50
2019-01-19T15:31:28.790Z,3.00
2019-01-19T15:34:15.632Z,3.08
2019-01-19T15:37:22.169Z,3.33
2019-01-19T15:40:01.219Z,3.15
2019-01-19T15:42:41.315Z,3.77
2019-01-19T15:45:20.002Z,4.22
2019-01-19T15:48:03.060Z,4.55
2019-01-19T15:51:07.110Z,4.85
2019-01-19T15:53:51.414Z,5.50
2019-01-19T15:56:43.746Z,5.62
2019-01-19T15:59:18.322Z,5.20
2019-01-19T16:02:06.273Z,5.25
2019-01-19T16:04:59.027Z,4.78
2019-01-19T16:07:57.638Z,4.97
2019-01-19T16:10:42.434Z,4.33
2019-01-19T16:13:20.838Z,5.55
2019-01-19T16:16:12.834Z,4.90
2019-01-19T16:18:45.598Z,4.45
2019-01-19T16:21:50.598Z,6.08
2019-01-19T16:24:24.702Z,6.58
2019-01-19T16:27:12.752Z,7.20
2019-01-19T16:29:53.057Z,7.25
2019-01-19T16:32:29.032Z,6.45
2019-01-19T16:35:22.847Z,8.53
2019-01-19T16:38:10.282Z,6.42
2019-01-19T16:40:55.290Z,7.05
2019-01-19T16:43:31.774Z,5.83
2019-01-19T16:46:44.658Z,5.50
2019-01-19T16:49:19.586Z,5.40
2019-01-19T16:51:55.279Z,4.90
2019-01-19T16:54:30.623Z,5.10
2019-01-19T16:57:05.310Z,5.83
2019-01-19T16:59:59.502Z,6.28
2019-01-19T17:02:49.698Z,6.08
2019-01-19T17:05:36.370Z,6.12
2019-01-19T17:08:09.478Z,6.90
2019-01-19T17:10:48.402Z,5.75
2019-01-19T17:13:24.003Z,6.55
2019-01-19T17:16:02.560Z,5.25
2019-01-19T17:18:50.632Z,7.45
2019-01-19T17:21:35.342Z,7.70
2019-01-19T17:24:13.498Z,8.35
2019-01-19T17:26:58.610Z,7.33
2019-01-19T17:29:58.594Z,8.58
2019-01-19T17:33:00.988Z,9.28
2019-01-19T17:35:58.078Z,8.03
2019-01-19T17:38:56.800Z,6.33
2019-01-19T17:41:47.318Z,5.92
2019-01-19T17:44:23.158Z,6.40
2019-01-19T17:47:07.678Z,6.85
2019-01-19T17:49:56.582Z,6.67
2019-01-19T17:52:33.130Z,6.47
2019-01-19T17:55:22.218Z,6.15
2019-01-19T17:58:00.895Z,5.75
2019-01-19T18:00:55.959Z,6.12
2019-01-19T18:03:43.642Z,6.50
2019-01-19T18:06:22.063Z,6.17
2019-01-19T18:09:15.748Z,5.80
2019-01-19T18:11:53.071Z,5.90
2019-01-19T18:14:28.783Z,5.47
2019-01-19T18:17:32.106Z,4.80
2019-01-19T18:20:22.247Z,4.50
2019-01-19T18:23:04.067Z,4.60
2019-01-19T18:25:53.614Z,4.60
2019-01-19T18:28:53.403Z,4.97
2019-01-19T18:31:57.029Z,6.08
2019-01-19T18:34:35.795Z,6.03
2019-01-19T18:37:11.103Z,6.00
2019-01-19T18:39:54.871Z,6.62
2019-01-19T18:42:46.284Z,6.15
2019-01-19T18:45:27.671Z,5.75
2019-01-19T18:48:14.016Z,6.67
2019-01-19T18:51:05.643Z,6.78
2019-01-19T18:53:38.501Z,6.05
2019-01-19T18:57:03.459Z,5.22
2019-01-19T18:59:40.547Z,7.25
2019-01-19T19:02:45.559Z,5.25
2019-01-19T19:05:18.483Z,6.42
2019-01-19T19:07:55.894Z,6.25
2019-01-19T19:10:37.342Z,6.20
2019-01-19T19:13:19.355Z,6.50
2019-01-19T19:16:01.525Z,6.22
2019-01-19T19:18:46.295Z,5.90
2019-01-19T19:21:37.961Z,6.08
2019-01-19T19:24:18.071Z,6.60
2019-01-19T19:26:59.599Z,6.65
2019-01-19T19:29:38.043Z,6.95
2019-01-19T19:32:16.775Z,6.00
2019-01-19T19:35:13.567Z,5.95
2019-01-19T19:38:01.043Z,5.17
2019-01-19T19:40:36.271Z,6.15
2019-01-19T19:43:11.463Z,7.33
2019-01-19T19:45:46.139Z,4.70
2019-01-19T19:48:23.640Z,5.90
2019-01-19T19:50:56.407Z,6.05
2019-01-19T19:53:26.100Z,5.62
2019-01-19T19:55:54.707Z,5.83
2019-01-19T19:58:25.367Z,6.65
2019-01-19T20:00:56.059Z,5.60
2019-01-19T20:03:26.647Z,5.25
2019-01-19T20:05:58.399Z,5.67
2019-01-19T20:08:28.264Z,5.80
2019-01-19T20:10:58.871Z,5.95
2019-01-19T20:13:29.547Z,5.80
2019-01-19T20:15:59.469Z,7.33
2019-01-19T20:18:29.175Z,5.65
2019-01-19T20:20:58.899Z,5.85
2019-01-19T20:23:28.599Z,6.35
2019-01-19T20:25:58.324Z,6.03
2019-01-19T20:28:28.907Z,5.53
2019-01-19T20:30:58.596Z,5.15
2019-01-19T20:33:28.303Z,5.05
2019-01-19T20:35:58.011Z,6.15
2019-01-19T20:38:29.775Z,5.92
2019-01-19T20:41:00.479Z,6.25
2019-01-19T20:43:30.171Z,6.42
2019-01-19T20:46:06.287Z,6.00
2019-01-19T20:48:36.966Z,5.00
2019-01-19T20:51:06.805Z,5.87
2019-01-19T20:53:36.519Z,6.30
2019-01-19T20:56:06.511Z,5.15
2019-01-19T20:58:38.711Z,4.83
2019-01-19T21:01:08.383Z,6.53
2019-01-19T21:03:38.087Z,7.00
2019-01-19T21:06:08.676Z,4.65
2019-01-19T21:08:38.378Z,5.78
2019-01-19T21:11:08.083Z,4.80
2019-01-19T21:13:38.775Z,5.40
2019-01-19T21:16:08.540Z,6.03
2019-01-19T21:18:38.251Z,6.90
2019-01-19T21:21:07.940Z,6.45
2019-01-19T21:23:37.688Z,5.22
2019-01-19T21:26:07.447Z,5.20
2019-01-19T21:28:37.147Z,5.83
2019-01-19T21:31:08.807Z,5.60
2019-01-19T21:33:39.415Z,4.85
2019-01-19T21:36:10.452Z,6.33
2019-01-19T21:38:41.295Z,5.47
2019-01-19T21:41:10.991Z,5.75
2019-01-19T21:43:41.592Z,5.97
2019-01-19T21:46:12.271Z,5.42
2019-01-19T21:48:42.217Z,4.65
2019-01-19T21:51:11.975Z,4.08
2019-01-19T21:53:41.679Z,5.37
2019-01-19T21:56:11.439Z,5.58
2019-01-19T21:58:42.071Z,5.10
2019-01-19T22:01:14.520Z,6.05
2019-01-19T22:03:44.231Z,5.08
2019-01-19T22:06:13.947Z,5.53
2019-01-19T22:08:44.651Z,5.40
2019-01-19T22:11:14.359Z,4.95
2019-01-19T22:13:44.147Z,6.17
2019-01-19T22:16:13.847Z,5.85
2019-01-19T22:18:51.416Z,5.65
2019-01-19T22:21:23.127Z,5.00
2019-01-19T22:23:52.835Z,4.87
2019-01-19T22:26:23.788Z,5.45
2019-01-19T22:28:54.604Z,5.30
2019-01-19T22:31:24.351Z,4.95
2019-01-19T22:33:54.083Z,6.10
2019-01-19T22:36:25.783Z,5.05
2019-01-19T22:38:55.511Z,5.28
2019-01-19T22:41:27.415Z,5.33
2019-01-19T22:43:57.243Z,4.40
2019-01-19T22:46:26.944Z,4.78
2019-01-19T22:48:57.608Z,5.33
2019-01-19T22:51:28.308Z,5.40
2019-01-19T22:54:00.007Z,4.30
2019-01-19T22:56:38.823Z,6.30
2019-01-19T22:59:08.531Z,4.85
2019-01-19T23:01:39.895Z,3.55
2019-01-19T23:04:10.401Z,4.87
2019-01-19T23:06:40.143Z,4.95
2019-01-19T23:09:11.171Z,5.47
2019-01-19T23:11:41.107Z,5.30
2019-01-19T23:14:11.883Z,5.78
2019-01-19T23:16:41.687Z,4.33
2019-01-19T23:19:11.378Z,5.42
2019-01-19T23:21:41.431Z,6.87
2019-01-19T23:24:11.263Z,5.53
2019-01-19T23:26:41.145Z,5.10
2019-01-19T23:29:10.855Z,5.47
2019-01-19T23:31:40.759Z,4.58
2019-01-19T23:34:10.487Z,3.98
2019-01-19T23:36:40.203Z,4.37
2019-01-19T23:39:11.099Z,5.28
2019-01-19T23:41:46.592Z,5.62
2019-01-19T23:44:16.537Z,4.25
2019-01-19T23:46:46.395Z,4.30
2019-01-19T23:49:16.533Z,5.90
2019-01-19T23:51:46.379Z,6.00
2019-01-19T23:54:16.079Z,5.15
2019-01-19T23:56:45.788Z,4.95
2019-01-19T23:59:15.563Z,4.15
